Search METAR Data

METAR Data for ENSR:

ENSR 301320Z 32006KT 260V350 CAVOK 23/12 Q1008 RMK WIND RWY 32 34006KT WIND 1119FT 00000KT